sensor_id;sensor_type;location;lat;lon;timestamp;P1;durP1;ratioP1;P2;durP2;ratioP2
67737;SDS011;54534;43.612;1.572;2023-03-01T00:00:14;9.90;;;5.67;;
67737;SDS011;54534;43.612;1.572;2023-03-01T00:02:39;8.07;;;4.60;;
67737;SDS011;54534;43.612;1.572;2023-03-01T00:05:05;6.30;;;5.07;;
67737;SDS011;54534;43.612;1.572;2023-03-01T00:07:32;8.17;;;4.50;;
67737;SDS011;54534;43.612;1.572;2023-03-01T00:09:57;6.73;;;4.43;;
67737;SDS011;54534;43.612;1.572;2023-03-01T00:12:23;9.47;;;5.40;;
67737;SDS011;54534;43.612;1.572;2023-03-01T00:14:48;7.63;;;5.67;;
67737;SDS011;54534;43.612;1.572;2023-03-01T00:17:14;6.43;;;5.10;;
67737;SDS011;54534;43.612;1.572;2023-03-01T00:19:39;8.87;;;4.73;;
67737;SDS011;54534;43.612;1.572;2023-03-01T00:22:05;7.10;;;4.93;;
67737;SDS011;54534;43.612;1.572;2023-03-01T00:24:30;6.67;;;4.70;;
67737;SDS011;54534;43.612;1.572;2023-03-01T00:26:55;6.20;;;4.97;;
67737;SDS011;54534;43.612;1.572;2023-03-01T00:29:22;5.60;;;4.43;;
67737;SDS011;54534;43.612;1.572;2023-03-01T00:31:49;6.30;;;4.50;;
67737;SDS011;54534;43.612;1.572;2023-03-01T00:34:15;11.07;;;5.30;;
67737;SDS011;54534;43.612;1.572;2023-03-01T00:36:40;7.33;;;5.30;;
67737;SDS011;54534;43.612;1.572;2023-03-01T00:39:07;9.17;;;5.20;;
67737;SDS011;54534;43.612;1.572;2023-03-01T00:41:36;6.23;;;4.87;;
67737;SDS011;54534;43.612;1.572;2023-03-01T00:44:01;8.97;;;5.27;;
67737;SDS011;54534;43.612;1.572;2023-03-01T00:46:27;7.23;;;4.90;;
67737;SDS011;54534;43.612;1.572;2023-03-01T00:48:55;5.43;;;4.70;;
67737;SDS011;54534;43.612;1.572;2023-03-01T00:51:22;7.27;;;4.80;;
67737;SDS011;54534;43.612;1.572;2023-03-01T00:53:51;6.75;;;4.90;;
67737;SDS011;54534;43.612;1.572;2023-03-01T00:56:17;6.10;;;4.83;;
67737;SDS011;54534;43.612;1.572;2023-03-01T00:58:43;5.23;;;4.67;;
67737;SDS011;54534;43.612;1.572;2023-03-01T01:01:09;5.87;;;4.80;;
67737;SDS011;54534;43.612;1.572;2023-03-01T01:03:43;7.00;;;5.20;;
67737;SDS011;54534;43.612;1.572;2023-03-01T01:06:13;6.30;;;4.93;;
67737;SDS011;54534;43.612;1.572;2023-03-01T01:08:40;6.20;;;4.87;;
67737;SDS011;54534;43.612;1.572;2023-03-01T01:11:05;6.37;;;5.00;;
67737;SDS011;54534;43.612;1.572;2023-03-01T01:13:33;4.80;;;4.07;;
67737;SDS011;54534;43.612;1.572;2023-03-01T01:16:01;6.53;;;4.97;;
67737;SDS011;54534;43.612;1.572;2023-03-01T01:18:27;7.03;;;4.63;;
67737;SDS011;54534;43.612;1.572;2023-03-01T01:20:52;5.63;;;4.70;;
67737;SDS011;54534;43.612;1.572;2023-03-01T01:23:18;7.20;;;5.10;;
67737;SDS011;54534;43.612;1.572;2023-03-01T01:25:43;5.37;;;4.57;;
67737;SDS011;54534;43.612;1.572;2023-03-01T01:28:09;6.10;;;5.10;;
67737;SDS011;54534;43.612;1.572;2023-03-01T01:30:34;5.67;;;4.27;;
67737;SDS011;54534;43.612;1.572;2023-03-01T01:32:59;7.77;;;4.50;;
67737;SDS011;54534;43.612;1.572;2023-03-01T01:35:25;5.43;;;4.37;;
67737;SDS011;54534;43.612;1.572;2023-03-01T01:37:50;9.40;;;5.00;;
67737;SDS011;54534;43.612;1.572;2023-03-01T01:40:16;5.70;;;4.57;;
67737;SDS011;54534;43.612;1.572;2023-03-01T01:42:41;6.87;;;4.90;;
67737;SDS011;54534;43.612;1.572;2023-03-01T01:48:03;7.03;;;5.13;;
67737;SDS011;54534;43.612;1.572;2023-03-01T01:50:31;4.97;;;4.00;;
67737;SDS011;54534;43.612;1.572;2023-03-01T01:53:07;5.57;;;4.87;;
67737;SDS011;54534;43.612;1.572;2023-03-01T01:55:37;5.53;;;4.80;;
67737;SDS011;54534;43.612;1.572;2023-03-01T01:58:07;6.50;;;4.40;;
67737;SDS011;54534;43.612;1.572;2023-03-01T02:00:35;5.00;;;4.43;;
67737;SDS011;54534;43.612;1.572;2023-03-01T02:03:05;5.23;;;4.30;;
67737;SDS011;54534;43.612;1.572;2023-03-01T02:05:37;5.30;;;4.03;;
67737;SDS011;54534;43.612;1.572;2023-03-01T02:08:13;5.57;;;4.53;;
67737;SDS011;54534;43.612;1.572;2023-03-01T02:10:41;4.20;;;3.80;;
67737;SDS011;54534;43.612;1.572;2023-03-01T02:13:07;5.67;;;4.47;;
67737;SDS011;54534;43.612;1.572;2023-03-01T02:15:33;5.23;;;4.27;;
67737;SDS011;54534;43.612;1.572;2023-03-01T02:18:00;5.90;;;4.33;;
67737;SDS011;54534;43.612;1.572;2023-03-01T02:22:52;4.63;;;4.13;;
67737;SDS011;54534;43.612;1.572;2023-03-01T02:25:22;5.97;;;4.60;;
67737;SDS011;54534;43.612;1.572;2023-03-01T02:27:50;5.57;;;4.43;;
67737;SDS011;54534;43.612;1.572;2023-03-01T02:30:18;5.07;;;4.30;;
67737;SDS011;54534;43.612;1.572;2023-03-01T02:32:44;7.20;;;4.60;;
67737;SDS011;54534;43.612;1.572;2023-03-01T02:35:13;6.40;;;4.20;;
67737;SDS011;54534;43.612;1.572;2023-03-01T02:37:41;4.60;;;3.93;;
67737;SDS011;54534;43.612;1.572;2023-03-01T02:40:09;6.17;;;4.10;;
67737;SDS011;54534;43.612;1.572;2023-03-01T02:42:43;4.10;;;3.70;;
67737;SDS011;54534;43.612;1.572;2023-03-01T02:45:16;5.57;;;4.83;;
67737;SDS011;54534;43.612;1.572;2023-03-01T02:47:41;5.40;;;4.00;;
67737;SDS011;54534;43.612;1.572;2023-03-01T02:55:41;4.93;;;3.93;;
67737;SDS011;54534;43.612;1.572;2023-03-01T02:58:07;5.93;;;4.40;;
67737;SDS011;54534;43.612;1.572;2023-03-01T03:00:37;5.10;;;3.93;;
67737;SDS011;54534;43.612;1.572;2023-03-01T03:03:05;5.00;;;4.20;;
67737;SDS011;54534;43.612;1.572;2023-03-01T03:05:32;5.63;;;3.93;;
67737;SDS011;54534;43.612;1.572;2023-03-01T03:07:59;6.63;;;3.93;;
67737;SDS011;54534;43.612;1.572;2023-03-01T03:10:27;4.33;;;3.73;;
67737;SDS011;54534;43.612;1.572;2023-03-01T03:12:58;4.30;;;3.70;;
67737;SDS011;54534;43.612;1.572;2023-03-01T03:15:29;5.73;;;3.97;;
67737;SDS011;54534;43.612;1.572;2023-03-01T03:17:55;4.87;;;4.00;;
67737;SDS011;54534;43.612;1.572;2023-03-01T03:20:24;5.27;;;3.93;;
67737;SDS011;54534;43.612;1.572;2023-03-01T03:22:53;4.67;;;4.10;;
67737;SDS011;54534;43.612;1.572;2023-03-01T03:25:20;4.90;;;3.83;;
67737;SDS011;54534;43.612;1.572;2023-03-01T03:27:47;4.03;;;3.63;;
67737;SDS011;54534;43.612;1.572;2023-03-01T03:30:14;4.67;;;3.53;;
67737;SDS011;54534;43.612;1.572;2023-03-01T03:32:42;5.40;;;4.10;;
67737;SDS011;54534;43.612;1.572;2023-03-01T03:35:22;4.47;;;3.93;;
67737;SDS011;54534;43.612;1.572;2023-03-01T03:37:49;5.47;;;3.97;;
67737;SDS011;54534;43.612;1.572;2023-03-01T03:40:37;3.97;;;3.50;;
67737;SDS011;54534;43.612;1.572;2023-03-01T03:43:05;4.00;;;3.60;;
67737;SDS011;54534;43.612;1.572;2023-03-01T03:45:32;5.37;;;3.77;;
67737;SDS011;54534;43.612;1.572;2023-03-01T03:47:58;4.40;;;3.93;;
67737;SDS011;54534;43.612;1.572;2023-03-01T03:50:25;4.83;;;4.10;;
67737;SDS011;54534;43.612;1.572;2023-03-01T03:52:51;5.13;;;4.30;;
67737;SDS011;54534;43.612;1.572;2023-03-01T03:55:16;4.00;;;3.50;;
67737;SDS011;54534;43.612;1.572;2023-03-01T03:57:44;4.53;;;4.13;;
67737;SDS011;54534;43.612;1.572;2023-03-01T04:00:16;4.97;;;4.00;;
67737;SDS011;54534;43.612;1.572;2023-03-01T04:02:44;4.43;;;3.87;;
67737;SDS011;54534;43.612;1.572;2023-03-01T04:05:11;5.53;;;4.07;;
67737;SDS011;54534;43.612;1.572;2023-03-01T04:07:38;4.70;;;4.13;;
67737;SDS011;54534;43.612;1.572;2023-03-01T04:10:04;4.13;;;3.70;;
67737;SDS011;54534;43.612;1.572;2023-03-01T04:12:31;4.23;;;3.83;;
67737;SDS011;54534;43.612;1.572;2023-03-01T04:14:59;4.67;;;3.83;;
67737;SDS011;54534;43.612;1.572;2023-03-01T04:17:40;5.33;;;3.90;;
67737;SDS011;54534;43.612;1.572;2023-03-01T04:20:06;3.67;;;3.37;;
67737;SDS011;54534;43.612;1.572;2023-03-01T04:22:34;5.83;;;3.87;;
67737;SDS011;54534;43.612;1.572;2023-03-01T04:25:00;4.67;;;4.10;;
67737;SDS011;54534;43.612;1.572;2023-03-01T04:27:26;5.67;;;4.00;;
67737;SDS011;54534;43.612;1.572;2023-03-01T04:29:52;5.80;;;4.30;;
67737;SDS011;54534;43.612;1.572;2023-03-01T04:32:17;4.50;;;4.03;;
67737;SDS011;54534;43.612;1.572;2023-03-01T04:34:43;4.60;;;3.93;;
67737;SDS011;54534;43.612;1.572;2023-03-01T04:37:08;4.20;;;3.80;;
67737;SDS011;54534;43.612;1.572;2023-03-01T04:39:34;4.07;;;3.67;;
67737;SDS011;54534;43.612;1.572;2023-03-01T04:42:11;6.03;;;4.30;;
67737;SDS011;54534;43.612;1.572;2023-03-01T04:44:37;5.23;;;4.23;;
67737;SDS011;54534;43.612;1.572;2023-03-01T04:47:02;7.83;;;4.73;;
67737;SDS011;54534;43.612;1.572;2023-03-01T04:49:28;5.80;;;4.53;;
67737;SDS011;54534;43.612;1.572;2023-03-01T04:51:54;4.90;;;4.40;;
67737;SDS011;54534;43.612;1.572;2023-03-01T04:54:20;5.97;;;4.40;;
67737;SDS011;54534;43.612;1.572;2023-03-01T04:56:45;5.47;;;4.73;;
67737;SDS011;54534;43.612;1.572;2023-03-01T04:59:11;6.07;;;4.40;;
67737;SDS011;54534;43.612;1.572;2023-03-01T05:01:37;5.97;;;4.80;;
67737;SDS011;54534;43.612;1.572;2023-03-01T05:04:03;6.40;;;4.73;;
67737;SDS011;54534;43.612;1.572;2023-03-01T05:06:30;6.67;;;4.53;;
67737;SDS011;54534;43.612;1.572;2023-03-01T05:08:56;7.33;;;5.40;;
67737;SDS011;54534;43.612;1.572;2023-03-01T05:11:21;6.90;;;5.13;;
67737;SDS011;54534;43.612;1.572;2023-03-01T05:13:47;6.67;;;4.83;;
67737;SDS011;54534;43.612;1.572;2023-03-01T05:16:14;6.23;;;5.13;;
67737;SDS011;54534;43.612;1.572;2023-03-01T05:18:41;6.50;;;5.10;;
67737;SDS011;54534;43.612;1.572;2023-03-01T05:21:09;6.47;;;5.30;;
67737;SDS011;54534;43.612;1.572;2023-03-01T05:23:36;8.03;;;5.43;;
67737;SDS011;54534;43.612;1.572;2023-03-01T05:26:02;7.10;;;5.50;;
67737;SDS011;54534;43.612;1.572;2023-03-01T05:28:29;7.20;;;5.50;;
67737;SDS011;54534;43.612;1.572;2023-03-01T05:30:55;6.43;;;4.97;;
67737;SDS011;54534;43.612;1.572;2023-03-01T05:33:21;7.57;;;5.07;;
67737;SDS011;54534;43.612;1.572;2023-03-01T05:35:48;5.93;;;4.90;;
67737;SDS011;54534;43.612;1.572;2023-03-01T05:38:13;6.87;;;4.90;;
67737;SDS011;54534;43.612;1.572;2023-03-01T05:40:43;5.37;;;4.47;;
67737;SDS011;54534;43.612;1.572;2023-03-01T05:43:10;5.97;;;4.80;;
67737;SDS011;54534;43.612;1.572;2023-03-01T05:45:37;6.00;;;4.87;;
67737;SDS011;54534;43.612;1.572;2023-03-01T05:48:03;7.13;;;4.93;;
67737;SDS011;54534;43.612;1.572;2023-03-01T05:50:32;7.30;;;4.90;;
67737;SDS011;54534;43.612;1.572;2023-03-01T05:53:04;6.37;;;4.60;;
67737;SDS011;54534;43.612;1.572;2023-03-01T05:55:32;9.65;;;4.50;;
67737;SDS011;54534;43.612;1.572;2023-03-01T05:57:59;6.03;;;4.73;;
67737;SDS011;54534;43.612;1.572;2023-03-01T06:00:26;6.20;;;4.83;;
67737;SDS011;54534;43.612;1.572;2023-03-01T06:02:53;6.37;;;4.97;;
67737;SDS011;54534;43.612;1.572;2023-03-01T06:05:19;7.13;;;5.20;;
67737;SDS011;54534;43.612;1.572;2023-03-01T06:07:45;5.17;;;4.50;;
67737;SDS011;54534;43.612;1.572;2023-03-01T06:10:11;5.90;;;4.93;;
67737;SDS011;54534;43.612;1.572;2023-03-01T06:12:38;7.53;;;5.53;;
67737;SDS011;54534;43.612;1.572;2023-03-01T06:15:05;9.67;;;4.67;;
67737;SDS011;54534;43.612;1.572;2023-03-01T06:17:33;28.97;;;5.97;;
67737;SDS011;54534;43.612;1.572;2023-03-01T06:20:03;10.85;;;5.30;;
67737;SDS011;54534;43.612;1.572;2023-03-01T06:22:30;6.67;;;5.10;;
67737;SDS011;54534;43.612;1.572;2023-03-01T06:24:55;13.33;;;5.77;;
67737;SDS011;54534;43.612;1.572;2023-03-01T06:27:21;6.60;;;5.37;;
67737;SDS011;54534;43.612;1.572;2023-03-01T06:29:46;7.60;;;5.00;;
67737;SDS011;54534;43.612;1.572;2023-03-01T06:32:11;10.30;;;4.90;;
67737;SDS011;54534;43.612;1.572;2023-03-01T06:34:37;5.47;;;4.83;;
67737;SDS011;54534;43.612;1.572;2023-03-01T06:37:02;7.20;;;5.33;;
67737;SDS011;54534;43.612;1.572;2023-03-01T06:39:30;6.10;;;5.00;;
67737;SDS011;54534;43.612;1.572;2023-03-01T06:41:56;6.27;;;4.80;;
67737;SDS011;54534;43.612;1.572;2023-03-01T06:44:21;8.23;;;5.40;;
67737;SDS011;54534;43.612;1.572;2023-03-01T06:46:47;5.80;;;4.57;;
67737;SDS011;54534;43.612;1.572;2023-03-01T06:49:12;7.90;;;4.90;;
67737;SDS011;54534;43.612;1.572;2023-03-01T06:51:37;11.83;;;5.43;;
67737;SDS011;54534;43.612;1.572;2023-03-01T06:54:04;7.17;;;5.20;;
67737;SDS011;54534;43.612;1.572;2023-03-01T06:56:30;7.20;;;5.07;;
67737;SDS011;54534;43.612;1.572;2023-03-01T06:58:56;5.67;;;5.00;;
67737;SDS011;54534;43.612;1.572;2023-03-01T07:01:22;10.47;;;5.10;;
67737;SDS011;54534;43.612;1.572;2023-03-01T07:03:47;6.37;;;4.93;;
67737;SDS011;54534;43.612;1.572;2023-03-01T07:06:12;10.10;;;5.27;;
67737;SDS011;54534;43.612;1.572;2023-03-01T07:08:38;7.17;;;4.67;;
67737;SDS011;54534;43.612;1.572;2023-03-01T07:11:03;6.47;;;4.53;;
67737;SDS011;54534;43.612;1.572;2023-03-01T07:13:30;5.53;;;4.73;;
67737;SDS011;54534;43.612;1.572;2023-03-01T07:15:56;9.13;;;5.53;;
67737;SDS011;54534;43.612;1.572;2023-03-01T07:18:21;8.40;;;5.40;;
67737;SDS011;54534;43.612;1.572;2023-03-01T07:20:47;5.53;;;4.73;;
67737;SDS011;54534;43.612;1.572;2023-03-01T07:23:12;8.33;;;5.03;;
67737;SDS011;54534;43.612;1.572;2023-03-01T07:25:38;7.03;;;4.93;;
67737;SDS011;54534;43.612;1.572;2023-03-01T07:28:03;11.43;;;5.33;;
67737;SDS011;54534;43.612;1.572;2023-03-01T07:30:29;6.63;;;4.97;;
67737;SDS011;54534;43.612;1.572;2023-03-01T07:32:55;7.37;;;5.50;;
67737;SDS011;54534;43.612;1.572;2023-03-01T07:35:22;7.53;;;5.30;;
67737;SDS011;54534;43.612;1.572;2023-03-01T07:37:48;6.80;;;4.83;;
67737;SDS011;54534;43.612;1.572;2023-03-01T07:40:13;6.67;;;5.10;;
67737;SDS011;54534;43.612;1.572;2023-03-01T07:42:38;8.33;;;4.57;;
67737;SDS011;54534;43.612;1.572;2023-03-01T07:45:04;7.23;;;4.97;;
67737;SDS011;54534;43.612;1.572;2023-03-01T07:47:30;7.80;;;5.27;;
67737;SDS011;54534;43.612;1.572;2023-03-01T07:49:56;8.87;;;5.57;;
67737;SDS011;54534;43.612;1.572;2023-03-01T07:52:21;6.37;;;4.97;;
67737;SDS011;54534;43.612;1.572;2023-03-01T07:54:47;8.00;;;5.40;;
67737;SDS011;54534;43.612;1.572;2023-03-01T07:57:12;8.77;;;5.70;;
67737;SDS011;54534;43.612;1.572;2023-03-01T07:59:38;13.23;;;5.60;;
67737;SDS011;54534;43.612;1.572;2023-03-01T08:02:03;8.97;;;5.40;;
67737;SDS011;54534;43.612;1.572;2023-03-01T08:04:28;6.97;;;5.40;;
67737;SDS011;54534;43.612;1.572;2023-03-01T08:06:54;9.10;;;5.53;;
67737;SDS011;54534;43.612;1.572;2023-03-01T08:09:20;8.90;;;5.37;;
67737;SDS011;54534;43.612;1.572;2023-03-01T08:11:45;7.80;;;5.00;;
67737;SDS011;54534;43.612;1.572;2023-03-01T08:14:11;7.30;;;5.30;;
67737;SDS011;54534;43.612;1.572;2023-03-01T08:16:37;7.67;;;5.20;;
67737;SDS011;54534;43.612;1.572;2023-03-01T08:19:03;7.27;;;4.97;;
67737;SDS011;54534;43.612;1.572;2023-03-01T08:21:33;6.30;;;5.13;;
67737;SDS011;54534;43.612;1.572;2023-03-01T08:24:02;7.33;;;5.40;;
67737;SDS011;54534;43.612;1.572;2023-03-01T08:26:29;6.77;;;4.93;;
67737;SDS011;54534;43.612;1.572;2023-03-01T08:28:54;6.60;;;4.83;;
67737;SDS011;54534;43.612;1.572;2023-03-01T08:33:52;5.70;;;4.57;;
67737;SDS011;54534;43.612;1.572;2023-03-01T08:36:23;7.77;;;4.93;;
67737;SDS011;54534;43.612;1.572;2023-03-01T08:38:50;6.50;;;4.80;;
67737;SDS011;54534;43.612;1.572;2023-03-01T08:41:16;6.37;;;4.63;;
67737;SDS011;54534;43.612;1.572;2023-03-01T08:43:42;5.60;;;5.00;;
67737;SDS011;54534;43.612;1.572;2023-03-01T08:46:08;6.57;;;5.00;;
67737;SDS011;54534;43.612;1.572;2023-03-01T08:48:33;6.30;;;4.63;;
67737;SDS011;54534;43.612;1.572;2023-03-01T08:51:14;5.33;;;4.50;;
67737;SDS011;54534;43.612;1.572;2023-03-01T08:53:42;4.80;;;4.30;;
67737;SDS011;54534;43.612;1.572;2023-03-01T08:56:09;6.53;;;4.80;;
67737;SDS011;54534;43.612;1.572;2023-03-01T08:58:35;6.40;;;4.20;;
67737;SDS011;54534;43.612;1.572;2023-03-01T09:01:06;6.53;;;4.63;;
67737;SDS011;54534;43.612;1.572;2023-03-01T09:03:32;5.70;;;4.37;;
67737;SDS011;54534;43.612;1.572;2023-03-01T09:06:00;6.50;;;4.97;;
67737;SDS011;54534;43.612;1.572;2023-03-01T09:08:26;7.32;;;5.07;;
67737;SDS011;54534;43.612;1.572;2023-03-01T09:10:52;4.90;;;4.03;;
67737;SDS011;54534;43.612;1.572;2023-03-01T09:13:17;4.70;;;4.13;;
67737;SDS011;54534;43.612;1.572;2023-03-01T09:15:43;9.60;;;4.80;;
67737;SDS011;54534;43.612;1.572;2023-03-01T09:18:08;5.70;;;4.13;;
67737;SDS011;54534;43.612;1.572;2023-03-01T09:20:34;6.20;;;4.47;;
67737;SDS011;54534;43.612;1.572;2023-03-01T09:22:59;6.23;;;4.30;;
67737;SDS011;54534;43.612;1.572;2023-03-01T09:25:25;6.43;;;4.53;;
67737;SDS011;54534;43.612;1.572;2023-03-01T09:27:53;5.50;;;4.80;;
67737;SDS011;54534;43.612;1.572;2023-03-01T09:30:20;6.25;;;4.60;;
67737;SDS011;54534;43.612;1.572;2023-03-01T09:32:46;7.87;;;4.17;;
67737;SDS011;54534;43.612;1.572;2023-03-01T09:35:12;5.40;;;4.30;;
67737;SDS011;54534;43.612;1.572;2023-03-01T09:37:38;5.63;;;4.70;;
67737;SDS011;54534;43.612;1.572;2023-03-01T09:40:05;4.43;;;3.83;;
67737;SDS011;54534;43.612;1.572;2023-03-01T09:42:32;4.80;;;3.70;;
67737;SDS011;54534;43.612;1.572;2023-03-01T09:45:02;4.63;;;3.95;;
67737;SDS011;54534;43.612;1.572;2023-03-01T09:47:31;5.00;;;3.90;;
67737;SDS011;54534;43.612;1.572;2023-03-01T09:50:09;5.18;;;4.40;;
67737;SDS011;54534;43.612;1.572;2023-03-01T09:55:25;5.07;;;4.23;;
67737;SDS011;54534;43.612;1.572;2023-03-01T09:57:59;6.17;;;4.20;;
67737;SDS011;54534;43.612;1.572;2023-03-01T10:00:43;4.57;;;3.90;;
67737;SDS011;54534;43.612;1.572;2023-03-01T10:05:41;5.23;;;3.90;;
67737;SDS011;54534;43.612;1.572;2023-03-01T10:10:48;4.10;;;3.70;;
67737;SDS011;54534;43.612;1.572;2023-03-01T10:13:17;4.60;;;3.97;;
67737;SDS011;54534;43.612;1.572;2023-03-01T10:16:31;4.20;;;3.30;;
67737;SDS011;54534;43.612;1.572;2023-03-01T10:18:38;3.97;;;3.50;;
67737;SDS011;54534;43.612;1.572;2023-03-01T10:21:15;4.17;;;3.40;;
67737;SDS011;54534;43.612;1.572;2023-03-01T10:23:44;5.63;;;3.80;;
67737;SDS011;54534;43.612;1.572;2023-03-01T10:29:01;6.10;;;3.30;;
67737;SDS011;54534;43.612;1.572;2023-03-01T10:31:49;3.77;;;3.43;;
67737;SDS011;54534;43.612;1.572;2023-03-01T10:34:21;5.43;;;4.03;;
67737;SDS011;54534;43.612;1.572;2023-03-01T10:36:53;5.63;;;3.73;;
67737;SDS011;54534;43.612;1.572;2023-03-01T10:39:23;3.60;;;3.30;;
67737;SDS011;54534;43.612;1.572;2023-03-01T10:47:14;3.53;;;2.90;;
67737;SDS011;54534;43.612;1.572;2023-03-01T10:49:51;3.63;;;3.30;;
67737;SDS011;54534;43.612;1.572;2023-03-01T10:52:32;4.27;;;3.50;;
67737;SDS011;54534;43.612;1.572;2023-03-01T10:55:01;4.97;;;3.27;;
67737;SDS011;54534;43.612;1.572;2023-03-01T10:57:33;4.47;;;2.97;;
67737;SDS011;54534;43.612;1.572;2023-03-01T11:05:25;3.60;;;3.30;;
67737;SDS011;54534;43.612;1.572;2023-03-01T11:07:56;4.80;;;3.80;;
67737;SDS011;54534;43.612;1.572;2023-03-01T11:10:24;4.10;;;3.23;;
67737;SDS011;54534;43.612;1.572;2023-03-01T11:12:51;3.23;;;2.80;;
67737;SDS011;54534;43.612;1.572;2023-03-01T11:15:35;5.13;;;3.37;;
67737;SDS011;54534;43.612;1.572;2023-03-01T11:18:01;3.93;;;3.40;;
67737;SDS011;54534;43.612;1.572;2023-03-01T11:20:36;3.60;;;3.10;;
67737;SDS011;54534;43.612;1.572;2023-03-01T11:23:04;4.57;;;2.90;;
67737;SDS011;54534;43.612;1.572;2023-03-01T11:25:37;4.07;;;2.73;;
67737;SDS011;54534;43.612;1.572;2023-03-01T11:28:11;3.07;;;2.77;;
67737;SDS011;54534;43.612;1.572;2023-03-01T11:30:43;3.33;;;2.87;;
67737;SDS011;54534;43.612;1.572;2023-03-01T11:38:40;3.30;;;3.00;;
67737;SDS011;54534;43.612;1.572;2023-03-01T12:02:56;2.97;;;2.70;;
67737;SDS011;54534;43.612;1.572;2023-03-01T12:11:15;2.67;;;2.43;;
67737;SDS011;54534;43.612;1.572;2023-03-01T12:27:30;2.97;;;2.57;;
67737;SDS011;54534;43.612;1.572;2023-03-01T12:43:47;2.30;;;2.07;;
67737;SDS011;54534;43.612;1.572;2023-03-01T12:46:19;2.40;;;2.20;;
67737;SDS011;54534;43.612;1.572;2023-03-01T12:51:26;3.50;;;2.57;;
67737;SDS011;54534;43.612;1.572;2023-03-01T12:53:55;3.67;;;2.70;;
67737;SDS011;54534;43.612;1.572;2023-03-01T12:56:25;2.73;;;2.37;;
67737;SDS011;54534;43.612;1.572;2023-03-01T13:04:33;2.42;;;2.15;;
67737;SDS011;54534;43.612;1.572;2023-03-01T13:07:11;2.33;;;2.10;;
67737;SDS011;54534;43.612;1.572;2023-03-01T13:09:49;2.63;;;2.23;;
67737;SDS011;54534;43.612;1.572;2023-03-01T13:17:49;2.50;;;2.30;;
67737;SDS011;54534;43.612;1.572;2023-03-01T13:20:17;2.23;;;2.03;;
67737;SDS011;54534;43.612;1.572;2023-03-01T13:22:45;2.25;;;2.00;;
67737;SDS011;54534;43.612;1.572;2023-03-01T13:25:19;2.40;;;2.00;;
67737;SDS011;54534;43.612;1.572;2023-03-01T13:27:45;2.20;;;2.00;;
67737;SDS011;54534;43.612;1.572;2023-03-01T13:35:52;2.53;;;2.00;;
67737;SDS011;54534;43.612;1.572;2023-03-01T13:38:38;2.33;;;1.80;;
67737;SDS011;54534;43.612;1.572;2023-03-01T13:42:25;2.37;;;2.20;;
67737;SDS011;54534;43.612;1.572;2023-03-01T13:49:41;2.07;;;1.87;;
67737;SDS011;54534;43.612;1.572;2023-03-01T13:52:59;1.97;;;1.80;;
67737;SDS011;54534;43.612;1.572;2023-03-01T13:57:39;2.03;;;1.77;;
67737;SDS011;54534;43.612;1.572;2023-03-01T14:00:24;1.83;;;1.67;;
67737;SDS011;54534;43.612;1.572;2023-03-01T14:02:59;1.80;;;1.70;;
67737;SDS011;54534;43.612;1.572;2023-03-01T14:05:36;1.90;;;1.80;;
67737;SDS011;54534;43.612;1.572;2023-03-01T14:08:17;1.80;;;1.70;;
67737;SDS011;54534;43.612;1.572;2023-03-01T14:11:13;1.90;;;1.70;;
67737;SDS011;54534;43.612;1.572;2023-03-01T14:21:28;1.93;;;1.70;;
67737;SDS011;54534;43.612;1.572;2023-03-01T14:23:54;2.00;;;1.80;;
67737;SDS011;54534;43.612;1.572;2023-03-01T14:26:21;2.53;;;1.97;;
67737;SDS011;54534;43.612;1.572;2023-03-01T14:28:47;4.10;;;1.90;;
67737;SDS011;54534;43.612;1.572;2023-03-01T14:31:31;2.17;;;2.00;;
67737;SDS011;54534;43.612;1.572;2023-03-01T14:34:00;1.33;;;1.23;;
67737;SDS011;54534;43.612;1.572;2023-03-01T14:36:26;1.97;;;1.80;;
67737;SDS011;54534;43.612;1.572;2023-03-01T14:38:52;1.77;;;1.67;;
67737;SDS011;54534;43.612;1.572;2023-03-01T14:41:20;2.20;;;1.80;;
67737;SDS011;54534;43.612;1.572;2023-03-01T14:43:49;1.70;;;1.60;;
67737;SDS011;54534;43.612;1.572;2023-03-01T14:48:48;1.77;;;1.67;;
67737;SDS011;54534;43.612;1.572;2023-03-01T14:51:18;1.60;;;1.50;;
67737;SDS011;54534;43.612;1.572;2023-03-01T14:53:43;1.70;;;1.60;;
67737;SDS011;54534;43.612;1.572;2023-03-01T14:56:12;2.50;;;1.70;;
67737;SDS011;54534;43.612;1.572;2023-03-01T14:58:39;1.93;;;1.50;;
67737;SDS011;54534;43.612;1.572;2023-03-01T15:01:05;1.50;;;1.40;;
67737;SDS011;54534;43.612;1.572;2023-03-01T15:03:35;2.13;;;1.70;;
67737;SDS011;54534;43.612;1.572;2023-03-01T15:06:09;1.90;;;1.70;;
67737;SDS011;54534;43.612;1.572;2023-03-01T15:08:41;1.70;;;1.60;;
67737;SDS011;54534;43.612;1.572;2023-03-01T15:16:16;1.83;;;1.50;;
67737;SDS011;54534;43.612;1.572;2023-03-01T15:18:51;1.48;;;1.38;;
67737;SDS011;54534;43.612;1.572;2023-03-01T15:21:20;1.73;;;1.60;;
67737;SDS011;54534;43.612;1.572;2023-03-01T15:23:53;1.55;;;1.45;;
67737;SDS011;54534;43.612;1.572;2023-03-01T15:26:25;1.60;;;1.50;;
67737;SDS011;54534;43.612;1.572;2023-03-01T15:29:02;2.60;;;1.70;;
67737;SDS011;54534;43.612;1.572;2023-03-01T15:31:32;1.83;;;1.50;;
67737;SDS011;54534;43.612;1.572;2023-03-01T15:36:45;1.80;;;1.70;;
67737;SDS011;54534;43.612;1.572;2023-03-01T15:45:36;1.80;;;1.60;;
67737;SDS011;54534;43.612;1.572;2023-03-01T15:47:49;2.90;;;1.63;;
67737;SDS011;54534;43.612;1.572;2023-03-01T15:50:19;2.03;;;1.80;;
67737;SDS011;54534;43.612;1.572;2023-03-01T15:52:45;1.53;;;1.40;;
67737;SDS011;54534;43.612;1.572;2023-03-01T15:55:18;1.53;;;1.40;;
67737;SDS011;54534;43.612;1.572;2023-03-01T15:57:45;1.47;;;1.37;;
67737;SDS011;54534;43.612;1.572;2023-03-01T16:00:12;1.37;;;1.30;;
67737;SDS011;54534;43.612;1.572;2023-03-01T16:02:38;1.77;;;1.57;;
67737;SDS011;54534;43.612;1.572;2023-03-01T16:05:05;1.57;;;1.43;;
67737;SDS011;54534;43.612;1.572;2023-03-01T16:07:41;1.63;;;1.47;;
67737;SDS011;54534;43.612;1.572;2023-03-01T16:10:06;1.60;;;1.33;;
67737;SDS011;54534;43.612;1.572;2023-03-01T16:12:32;1.77;;;1.67;;
67737;SDS011;54534;43.612;1.572;2023-03-01T16:14:57;2.07;;;1.50;;
67737;SDS011;54534;43.612;1.572;2023-03-01T16:17:23;1.50;;;1.40;;
67737;SDS011;54534;43.612;1.572;2023-03-01T16:19:48;1.43;;;1.33;;
67737;SDS011;54534;43.612;1.572;2023-03-01T16:22:14;1.80;;;1.50;;
67737;SDS011;54534;43.612;1.572;2023-03-01T16:24:39;3.80;;;1.60;;
67737;SDS011;54534;43.612;1.572;2023-03-01T16:27:06;1.67;;;1.57;;
67737;SDS011;54534;43.612;1.572;2023-03-01T16:29:32;1.40;;;1.30;;
67737;SDS011;54534;43.612;1.572;2023-03-01T16:31:59;2.00;;;1.80;;
67737;SDS011;54534;43.612;1.572;2023-03-01T16:34:26;1.50;;;1.40;;
67737;SDS011;54534;43.612;1.572;2023-03-01T16:36:51;1.87;;;1.60;;
67737;SDS011;54534;43.612;1.572;2023-03-01T16:39:17;2.57;;;1.70;;
67737;SDS011;54534;43.612;1.572;2023-03-01T16:41:42;8.17;;;1.60;;
67737;SDS011;54534;43.612;1.572;2023-03-01T16:44:07;2.07;;;1.67;;
67737;SDS011;54534;43.612;1.572;2023-03-01T16:46:33;2.10;;;1.40;;
67737;SDS011;54534;43.612;1.572;2023-03-01T16:48:58;1.40;;;1.30;;
67737;SDS011;54534;43.612;1.572;2023-03-01T16:51:24;1.87;;;1.70;;
67737;SDS011;54534;43.612;1.572;2023-03-01T16:53:50;1.63;;;1.30;;
67737;SDS011;54534;43.612;1.572;2023-03-01T16:56:16;1.63;;;1.53;;
67737;SDS011;54534;43.612;1.572;2023-03-01T16:58:43;1.83;;;1.73;;
67737;SDS011;54534;43.612;1.572;2023-03-01T17:01:10;2.23;;;1.77;;
67737;SDS011;54534;43.612;1.572;2023-03-01T17:03:38;1.50;;;1.40;;
67737;SDS011;54534;43.612;1.572;2023-03-01T17:06:05;1.60;;;1.50;;
67737;SDS011;54534;43.612;1.572;2023-03-01T17:08:32;1.53;;;1.43;;
67737;SDS011;54534;43.612;1.572;2023-03-01T17:11:10;1.77;;;1.67;;
67737;SDS011;54534;43.612;1.572;2023-03-01T17:13:38;1.67;;;1.57;;
67737;SDS011;54534;43.612;1.572;2023-03-01T17:16:05;2.57;;;1.47;;
67737;SDS011;54534;43.612;1.572;2023-03-01T17:18:32;2.07;;;1.50;;
67737;SDS011;54534;43.612;1.572;2023-03-01T17:20:58;1.83;;;1.73;;